Airport View

Enter AWOS ICAO identifier for current METAR.

ex. KFNL

KEDE 192005Z AUTO 31009G17KT 10SM CLR 14/02 A2987 RMK AO2 T01390021

19 Jan 2020 20:09

Frequency: 118.275

Phone: 252-482-0757

Other Area AWOS: KECG - KASJ - KONX - KOCW

TAF KECG 191720Z 1918/2018 28012G20KT P6SM SCT025 FM192300 33009G15KT P6SM SKC FM200300 33007KT P6SM SKC